createdAt,value
2023-05-10T00:00:32.579Z,13977.4619
2023-05-10T00:01:34.268Z,13977.8457
2023-05-10T00:02:35.854Z,13982.1543
2023-05-10T00:03:37.501Z,13981.3848
2023-05-10T00:04:39.121Z,13983.3848
2023-05-10T00:05:40.789Z,13980.8457
2023-05-10T00:06:42.377Z,13982.9229
2023-05-10T00:07:44.033Z,13976.6924
2023-05-10T00:08:45.655Z,13984.6924
2023-05-10T00:09:47.305Z,13993.2305
2023-05-10T00:10:48.989Z,13986.3076
2023-05-10T00:11:50.558Z,13981.4619
2023-05-10T00:12:52.239Z,13988.5381
2023-05-10T00:13:53.815Z,13985.8457
2023-05-10T00:14:55.488Z,13983.9229
2023-05-10T00:15:57.156Z,13985.6924
2023-05-10T00:16:58.824Z,13994.0771
2023-05-10T00:18:00.500Z,13990.2305
2023-05-10T00:19:01.990Z,13984.3848
2023-05-10T00:20:03.740Z,13985.9229
2023-05-10T00:21:05.385Z,13985.7695
2023-05-10T00:22:07.009Z,13990.0000
2023-05-10T00:23:08.652Z,13988.0000
2023-05-10T00:24:10.349Z,13990.1543
2023-05-10T00:25:11.977Z,13995.9229
2023-05-10T00:26:13.623Z,13992.5381
2023-05-10T00:27:15.239Z,13984.5381
2023-05-10T00:28:16.862Z,13988.3076
2023-05-10T00:29:18.464Z,13990.0000
2023-05-10T00:30:20.097Z,13990.3076
2023-05-10T00:31:21.744Z,13990.7695
2023-05-10T00:32:23.503Z,13993.8457
2023-05-10T00:33:25.091Z,13997.0000
2023-05-10T00:34:26.697Z,13991.6152
2023-05-10T00:35:28.349Z,13987.6152
2023-05-10T00:36:29.978Z,13988.7695
2023-05-10T00:37:31.664Z,13990.5381
2023-05-10T00:38:33.207Z,13990.1543
2023-05-10T00:39:34.881Z,13990.0000
2023-05-10T00:40:36.595Z,13991.1543
2023-05-10T00:41:38.179Z,13997.6152
2023-05-10T00:42:39.781Z,13999.1543
2023-05-10T00:43:41.458Z,13997.0000
2023-05-10T00:44:43.045Z,13990.8457
2023-05-10T00:45:44.749Z,13993.2305
2023-05-10T00:46:46.348Z,13993.5381
2023-05-10T00:47:48.079Z,13991.5381
2023-05-10T00:48:49.674Z,13992.6924
2023-05-10T00:49:51.249Z,13993.0000
2023-05-10T00:50:52.969Z,13995.3076
2023-05-10T00:51:55.180Z,13996.3848
2023-05-10T00:52:57.127Z,13991.6152
2023-05-10T00:53:57.839Z,13992.0771
2023-05-10T00:54:59.543Z,13994.4619
2023-05-10T00:56:01.161Z,13992.6924
2023-05-10T00:57:02.831Z,13996.1543
2023-05-10T00:58:04.388Z,13993.0000
2023-05-10T00:59:06.018Z,13992.3076
2023-05-10T01:00:07.745Z,13999.2305
2023-05-10T01:01:09.313Z,14001.4619
2023-05-10T01:02:12.752Z,13993.8457
2023-05-10T01:03:12.736Z,13995.6152
2023-05-10T01:04:14.241Z,13996.7695
2023-05-10T01:05:16.048Z,13994.3076
2023-05-10T01:06:17.460Z,13999.7695
2023-05-10T01:07:19.224Z,13996.0000
2023-05-10T01:08:20.755Z,13994.6152
2023-05-10T01:09:22.435Z,13998.4619
2023-05-10T01:10:24.072Z,14001.3848
2023-05-10T01:11:25.702Z,13998.1543
2023-05-10T01:12:27.372Z,13995.1543
2023-05-10T01:13:29.104Z,13997.3848
2023-05-10T01:14:30.622Z,13997.9229
2023-05-10T01:15:32.309Z,13995.7695
2023-05-10T01:16:33.999Z,13996.2305
2023-05-10T01:17:35.803Z,13994.8457
2023-05-10T01:18:37.138Z,14001.8457
2023-05-10T01:19:38.852Z,14000.7695
2023-05-10T01:20:40.469Z,13997.1543
2023-05-10T01:21:42.144Z,13998.8457
2023-05-10T01:22:43.793Z,14000.5381
2023-05-10T01:23:45.406Z,13996.6152
2023-05-10T01:24:47.037Z,13995.0771
2023-05-10T01:25:48.680Z,13994.6924
2023-05-10T01:26:50.317Z,13992.3848
2023-05-10T01:27:52.212Z,13996.2305
2023-05-10T01:28:53.646Z,14001.3076
2023-05-10T01:30:05.907Z,14000.1543
2023-05-10T01:30:56.891Z,14000.3076
2023-05-10T01:31:58.541Z,13998.0000
2023-05-10T01:33:00.250Z,13998.0000
2023-05-10T01:34:01.905Z,13995.5381
2023-05-10T01:35:03.514Z,13996.1543
2023-05-10T01:36:05.247Z,13995.6152
2023-05-10T01:37:06.828Z,14001.9229
2023-05-10T01:38:08.439Z,13998.8457
2023-05-10T01:39:10.057Z,13997.6924
2023-05-10T01:40:11.653Z,13999.0771
2023-05-10T01:41:13.339Z,13996.3848
2023-05-10T01:42:14.948Z,13994.6924
2023-05-10T01:43:16.660Z,13996.3848
2023-05-10T01:44:18.274Z,13997.4619
2023-05-10T01:45:19.905Z,13996.3848
2023-05-10T01:46:21.580Z,13987.0000
2023-05-10T01:47:23.194Z,13994.8457
2023-05-10T01:48:24.871Z,13999.3848
2023-05-10T01:49:26.556Z,13997.1543
2023-05-10T01:50:28.100Z,13998.9229
2023-05-10T01:51:29.750Z,13999.6924
2023-05-10T01:52:31.445Z,13995.1543
2023-05-10T01:53:33.244Z,13995.1543
2023-05-10T01:54:34.653Z,13996.9229
2023-05-10T01:55:36.340Z,13994.4619
2023-05-10T01:56:37.884Z,14000.0771
2023-05-10T01:57:39.524Z,14001.3076
2023-05-10T01:58:41.191Z,14002.6924
2023-05-10T01:59:42.816Z,13998.1543
2023-05-10T02:00:44.435Z,13993.4619
2023-05-10T02:01:46.128Z,13992.0771
2023-05-10T02:02:47.777Z,13991.6924
2023-05-10T02:03:49.448Z,13997.8457
2023-05-10T02:04:52.197Z,13997.4619
2023-05-10T02:05:53.708Z,13998.8457
2023-05-10T02:06:55.328Z,13998.2305
2023-05-10T02:07:56.096Z,13993.2305
2023-05-10T02:08:58.344Z,13991.3848
2023-05-10T02:09:59.484Z,13989.9229
2023-05-10T02:11:01.990Z,13991.2305
2023-05-10T02:12:03.704Z,13991.3076
2023-05-10T02:13:04.261Z,13989.6924
2023-05-10T02:14:06.230Z,13992.6924
2023-05-10T02:15:07.631Z,13995.7695
2023-05-10T02:16:09.261Z,14000.5381
2023-05-10T02:17:10.806Z,13997.3848
2023-05-10T02:18:12.507Z,13992.8457
2023-05-10T02:19:14.141Z,13989.2305
2023-05-10T02:20:16.460Z,13986.8457
2023-05-10T02:21:17.419Z,13989.6924
2023-05-10T02:22:19.081Z,13990.1543
2023-05-10T02:23:20.679Z,13994.5381
2023-05-10T02:24:22.360Z,13994.0000
2023-05-10T02:25:24.043Z,13994.1543
2023-05-10T02:26:25.626Z,13993.6152
2023-05-10T02:27:27.257Z,13993.2305
2023-05-10T02:28:28.945Z,13990.9229
2023-05-10T02:29:30.704Z,13992.3848
2023-05-10T02:30:32.268Z,13990.3076
2023-05-10T02:31:34.015Z,13991.5381
2023-05-10T02:32:35.629Z,13993.9229
2023-05-10T02:33:37.153Z,13996.7695
2023-05-10T02:34:38.907Z,13996.1543
2023-05-10T02:35:40.465Z,13991.0000
2023-05-10T02:36:42.168Z,13992.5381
2023-05-10T02:37:43.806Z,13990.9229
2023-05-10T02:38:45.365Z,13992.0771
2023-05-10T02:39:47.116Z,13990.2305
2023-05-10T02:40:48.702Z,13991.6924
2023-05-10T02:41:50.285Z,13993.1543
2023-05-10T02:42:51.957Z,13994.8457
2023-05-10T02:43:53.632Z,13984.9229
2023-05-10T02:44:55.226Z,13992.2305
2023-05-10T02:45:57.274Z,13988.3076
2023-05-10T02:46:58.478Z,13992.6924
2023-05-10T02:48:00.246Z,13988.6924
2023-05-10T02:49:01.795Z,13990.6152
2023-05-10T02:50:03.426Z,13986.3848
2023-05-10T02:51:05.088Z,13992.5381
2023-05-10T02:52:06.748Z,13994.7695
2023-05-10T02:53:08.333Z,13993.0000
2023-05-10T02:54:10.080Z,13994.1543
2023-05-10T02:55:11.645Z,13989.4619
2023-05-10T02:56:13.355Z,13980.8457
2023-05-10T02:57:15.009Z,13974.5381
2023-05-10T02:58:16.609Z,13968.6924
2023-05-10T02:59:18.213Z,13963.8457
2023-05-10T03:00:19.929Z,13956.7695
2023-05-10T03:01:21.517Z,13956.8457
2023-05-10T03:02:23.190Z,13956.9229
2023-05-10T03:03:24.775Z,13954.4619
2023-05-10T03:04:26.472Z,13956.2305
2023-05-10T03:05:28.100Z,13952.6152
2023-05-10T03:06:29.752Z,13955.4619
2023-05-10T03:07:31.356Z,13956.1543
2023-05-10T03:08:33.041Z,13955.3848
2023-05-10T03:09:34.703Z,13957.1543
2023-05-10T03:10:36.351Z,13959.9229
2023-05-10T03:11:38.090Z,13957.4619
2023-05-10T03:12:39.582Z,13955.0771
2023-05-10T03:13:41.282Z,13954.3076
2023-05-10T03:14:42.858Z,13954.3848
2023-05-10T03:15:44.608Z,13954.6152
2023-05-10T03:16:46.337Z,13952.0000
2023-05-10T03:17:47.795Z,13952.1543
2023-05-10T03:18:49.453Z,13951.5381
2023-05-10T03:19:51.143Z,13953.3848
2023-05-10T03:20:52.800Z,13953.0771
2023-05-10T03:21:54.565Z,13954.9229
2023-05-10T03:22:56.025Z,13950.3076
2023-05-10T03:23:57.689Z,13948.5381
2023-05-10T03:24:59.342Z,13951.2305
2023-05-10T03:26:01.024Z,13951.4619
2023-05-10T03:27:02.629Z,13949.0000
2023-05-10T03:28:04.249Z,13948.3848
2023-05-10T03:29:05.897Z,13943.9229
2023-05-10T03:30:07.488Z,13944.7695
2023-05-10T03:31:09.204Z,13949.9229
2023-05-10T03:32:10.817Z,13950.3848
2023-05-10T03:33:12.422Z,13949.9229
2023-05-10T03:34:14.108Z,13948.5381
2023-05-10T03:35:15.823Z,13942.4619
2023-05-10T03:36:17.487Z,13946.3076
2023-05-10T03:37:19.039Z,13944.8457
2023-05-10T03:38:20.725Z,13946.2305
2023-05-10T03:39:22.378Z,13949.6152
2023-05-10T03:40:23.937Z,13944.8457
2023-05-10T03:41:25.572Z,13944.0000
2023-05-10T03:42:27.331Z,13945.4619
2023-05-10T03:43:28.848Z,13945.5381
2023-05-10T03:44:30.513Z,13945.0771
2023-05-10T03:45:32.218Z,13944.8457
2023-05-10T03:46:33.834Z,13946.2305
2023-05-10T03:47:35.479Z,13947.8457
2023-05-10T03:48:37.096Z,13947.3848
2023-05-10T03:49:38.709Z,13948.5381
2023-05-10T03:50:40.389Z,13944.2305
2023-05-10T03:51:42.110Z,13943.9229
2023-05-10T03:52:43.684Z,13947.6924
2023-05-10T03:53:45.277Z,13949.3848
2023-05-10T03:54:46.932Z,13948.3848
2023-05-10T03:55:48.597Z,13944.0771
2023-05-10T03:56:50.256Z,13942.5381
2023-05-10T03:57:51.918Z,13945.3076
2023-05-10T03:58:53.476Z,13944.0000
2023-05-10T03:59:55.049Z,13944.4619
2023-05-10T04:00:56.700Z,13942.3848
2023-05-10T04:01:58.368Z,13944.3076
2023-05-10T04:03:00.121Z,13938.3076
2023-05-10T04:04:01.624Z,13939.6924
2023-05-10T04:05:03.285Z,13943.2305
2023-05-10T04:06:04.939Z,13941.4619
2023-05-10T04:07:06.531Z,13941.4619
2023-05-10T04:08:08.212Z,13937.6152
2023-05-10T04:09:09.819Z,13942.3076
2023-05-10T04:10:11.499Z,13939.6152
2023-05-10T04:11:15.724Z,13939.6924
2023-05-10T04:12:14.747Z,13941.3848
2023-05-10T04:13:16.552Z,13936.5381
2023-05-10T04:14:18.043Z,13935.4619
2023-05-10T04:15:19.671Z,13936.5381
2023-05-10T04:16:21.323Z,13939.9229
2023-05-10T04:17:23.075Z,13942.0771
2023-05-10T04:18:24.656Z,13941.5381
2023-05-10T04:19:27.273Z,13939.3848
2023-05-10T04:20:27.932Z,13937.6924
2023-05-10T04:21:29.568Z,13936.2305
2023-05-10T04:22:31.175Z,13938.9229
2023-05-10T04:23:32.930Z,13938.1543
2023-05-10T04:24:34.580Z,13936.9229
2023-05-10T04:25:37.256Z,13936.9229
2023-05-10T04:26:37.830Z,13935.0771
2023-05-10T04:27:39.429Z,13935.0771
2023-05-10T04:28:41.227Z,13934.3076
2023-05-10T04:29:42.794Z,13937.3076
2023-05-10T04:30:44.420Z,13937.3848
2023-05-10T04:31:46.066Z,13940.0000
2023-05-10T04:32:48.721Z,13935.6152
2023-05-10T04:33:49.347Z,13935.3848
2023-05-10T04:34:50.972Z,13934.7695
2023-05-10T04:35:52.597Z,13933.9229
2023-05-10T04:36:54.295Z,13936.1543
2023-05-10T04:37:55.833Z,13935.5381
2023-05-10T04:38:57.606Z,13935.1543
2023-05-10T04:39:59.160Z,13933.0000
2023-05-10T04:41:00.797Z,13934.3076
2023-05-10T04:42:02.533Z,13938.0000
2023-05-10T04:43:04.209Z,13936.0000
2023-05-10T04:44:06.003Z,13936.0000
2023-05-10T04:45:07.520Z,13936.2305
2023-05-10T04:46:09.168Z,13933.3076
2023-05-10T04:47:12.676Z,13930.6152
2023-05-10T04:48:12.474Z,13932.7695
2023-05-10T04:49:14.101Z,13934.3848
2023-05-10T04:50:15.969Z,13934.0771
2023-05-10T04:51:17.473Z,13930.4619
2023-05-10T04:52:18.959Z,13931.0771
2023-05-10T04:53:20.684Z,13927.3076
2023-05-10T04:54:23.040Z,13923.3076
2023-05-10T04:55:23.989Z,13921.0000
2023-05-10T04:56:25.574Z,13919.9229
2023-05-10T04:57:27.234Z,13915.7695
2023-05-10T04:58:28.830Z,13914.3076
2023-05-10T04:59:30.938Z,13909.4619
2023-05-10T05:00:32.138Z,13909.6924
2023-05-10T05:01:33.955Z,13922.6152
2023-05-10T05:02:35.483Z,13919.9229
2023-05-10T05:03:38.076Z,13906.5381
2023-05-10T05:04:38.632Z,13898.9229
2023-05-10T05:05:40.349Z,13896.6152
2023-05-10T05:06:42.912Z,13908.3076
2023-05-10T05:07:43.568Z,13918.0000
2023-05-10T05:08:45.280Z,13912.2305
2023-05-10T05:09:46.832Z,13898.0771
2023-05-10T05:10:48.614Z,13890.7695
2023-05-10T05:11:50.173Z,13880.0771
2023-05-10T05:12:51.925Z,13901.9229
2023-05-10T05:13:53.518Z,13911.0771
2023-05-10T05:14:55.081Z,13897.6152
2023-05-10T05:15:57.009Z,13886.0000
2023-05-10T05:16:58.422Z,13883.8457
2023-05-10T05:18:00.110Z,13882.8457
2023-05-10T05:19:01.686Z,13900.7695
2023-05-10T05:20:03.336Z,13902.2305
2023-05-10T05:21:04.954Z,13891.5381
2023-05-10T05:22:06.641Z,13878.0771
2023-05-10T05:23:08.257Z,13875.1543
2023-05-10T05:24:09.906Z,13883.7695
2023-05-10T05:25:11.532Z,13896.5381
2023-05-10T05:26:13.214Z,13901.3076
2023-05-10T05:27:14.849Z,13883.3848
2023-05-10T05:28:16.402Z,13871.6924
2023-05-10T05:29:18.055Z,13869.2305
2023-05-10T05:30:19.804Z,13884.5381
2023-05-10T05:31:22.413Z,13895.9229
2023-05-10T05:32:22.959Z,13889.1543
2023-05-10T05:33:24.611Z,13873.1543
2023-05-10T05:34:26.475Z,13870.3848
2023-05-10T05:35:28.927Z,13869.0771
2023-05-10T05:36:29.543Z,13888.6152
2023-05-10T05:37:31.482Z,13886.9229
2023-05-10T05:38:33.817Z,13873.0771
2023-05-10T05:39:35.331Z,13861.5381
2023-05-10T05:40:36.164Z,13860.1543
2023-05-10T05:41:38.761Z,13873.0771
2023-05-10T05:42:40.491Z,13888.4619
2023-05-10T05:43:40.957Z,13882.5381
2023-05-10T05:44:42.941Z,13866.1543
2023-05-10T05:45:45.381Z,13855.6152
2023-05-10T05:46:45.972Z,13853.3076
2023-05-10T05:47:48.585Z,13874.0771
2023-05-10T05:48:49.297Z,13887.1543
2023-05-10T05:49:50.925Z,13873.1543
2023-05-10T05:50:52.527Z,13858.9229
2023-05-10T05:51:54.462Z,13858.4619
2023-05-10T05:52:56.793Z,13859.4619
2023-05-10T05:53:57.510Z,13880.6152
2023-05-10T05:54:59.091Z,13890.0771
2023-05-10T05:56:00.882Z,13869.6152
2023-05-10T05:57:02.460Z,13856.6924
2023-05-10T05:58:04.062Z,13856.2305
2023-05-10T05:59:05.690Z,13865.0000
2023-05-10T06:00:07.409Z,13881.0771
2023-05-10T06:01:08.972Z,13880.7695
2023-05-10T06:02:10.746Z,13858.0771
2023-05-10T06:03:13.360Z,13851.3848
2023-05-10T06:04:13.974Z,13848.4619
2023-05-10T06:05:16.612Z,13872.0771
2023-05-10T06:06:17.281Z,13882.3076
2023-05-10T06:07:19.857Z,13864.5381
2023-05-10T06:08:20.529Z,13847.4619
2023-05-10T06:09:22.189Z,13847.7695
2023-05-10T06:10:23.802Z,13854.3848
2023-05-10T06:11:26.409Z,13874.0771
2023-05-10T06:12:27.358Z,13865.3076
2023-05-10T06:13:29.936Z,13851.1543
2023-05-10T06:14:30.298Z,13842.8457
2023-05-10T06:15:32.048Z,13841.2305
2023-05-10T06:16:34.713Z,13860.9229
2023-05-10T06:17:35.271Z,13865.0771
2023-05-10T06:18:36.939Z,13861.4619
2023-05-10T06:19:38.526Z,13838.6924
2023-05-10T06:20:40.241Z,13838.0771
2023-05-10T06:21:41.862Z,13837.1543
2023-05-10T06:22:43.620Z,13856.0771
2023-05-10T06:23:45.133Z,13857.1543
2023-05-10T06:24:46.756Z,13838.0771
2023-05-10T06:25:48.451Z,13831.2305
2023-05-10T06:26:50.136Z,13830.6924
2023-05-10T06:27:53.651Z,13845.0000
2023-05-10T06:28:53.403Z,13859.3848
2023-05-10T06:30:02.177Z,13850.9229
2023-05-10T06:30:56.631Z,13831.0771
2023-05-10T06:31:58.458Z,13830.1543
2023-05-10T06:32:59.998Z,13836.6924
2023-05-10T06:34:01.542Z,13858.3848
2023-05-10T06:35:03.200Z,13863.6152
2023-05-10T06:36:04.887Z,13843.6152
2023-05-10T06:37:06.490Z,13827.4619
2023-05-10T06:38:08.260Z,13821.6152
2023-05-10T06:39:09.769Z,13837.5381
2023-05-10T06:40:11.497Z,13849.3076
2023-05-10T06:41:13.114Z,13844.7695
2023-05-10T06:42:14.828Z,13835.6152
2023-05-10T06:43:17.354Z,13823.0000
2023-05-10T06:44:18.059Z,13826.8457
2023-05-10T06:45:19.808Z,13849.3076
2023-05-10T06:46:21.284Z,13845.3076
2023-05-10T06:47:22.995Z,13836.3848
2023-05-10T06:48:24.637Z,13821.2305
2023-05-10T06:49:26.226Z,13811.3076
2023-05-10T06:50:27.790Z,13828.2305
2023-05-10T06:51:29.457Z,13848.4619
2023-05-10T06:52:31.107Z,13847.6924
2023-05-10T06:53:32.770Z,13832.3848
2023-05-10T06:54:34.385Z,13819.6152
2023-05-10T06:55:36.084Z,13814.2305
2023-05-10T06:56:37.664Z,13835.8457
2023-05-10T06:57:39.442Z,13840.6924
2023-05-10T06:58:42.003Z,13841.0771
2023-05-10T06:59:42.665Z,13826.3076
2023-05-10T07:00:44.330Z,13817.1543
2023-05-10T07:01:45.945Z,13818.8457
2023-05-10T07:02:47.569Z,13838.6152
2023-05-10T07:03:49.398Z,13844.4619
2023-05-10T07:04:50.901Z,13841.5381
2023-05-10T07:05:52.455Z,13823.2305
2023-05-10T07:06:54.087Z,13815.3848
2023-05-10T07:07:55.761Z,13826.3848
2023-05-10T07:08:58.385Z,13841.6924
2023-05-10T07:09:59.058Z,13854.0771
2023-05-10T07:11:00.656Z,13840.8457
2023-05-10T07:12:02.350Z,13819.4619
2023-05-10T07:13:04.009Z,13815.3848
2023-05-10T07:14:05.657Z,13842.1543
2023-05-10T07:15:07.286Z,13858.3076
2023-05-10T07:16:08.963Z,13855.9229
2023-05-10T07:17:10.586Z,13827.1543
2023-05-10T07:18:12.210Z,13806.6152
2023-05-10T07:19:13.788Z,13812.2305
2023-05-10T07:20:15.564Z,13844.8457
2023-05-10T07:21:17.106Z,13856.6152
2023-05-10T07:22:18.746Z,13833.2305
2023-05-10T07:23:20.402Z,13792.5381
2023-05-10T07:24:22.396Z,13800.3076
2023-05-10T07:25:23.647Z,13827.7695
2023-05-10T07:26:25.882Z,13860.3848
2023-05-10T07:27:27.796Z,13843.0771
2023-05-10T07:28:28.691Z,13812.2305
2023-05-10T07:29:30.303Z,13800.8457
2023-05-10T07:30:32.021Z,13807.4619
2023-05-10T07:31:33.495Z,13848.0000
2023-05-10T07:32:35.300Z,13850.6924
2023-05-10T07:33:36.809Z,13825.4619
2023-05-10T07:34:38.496Z,13796.6924
2023-05-10T07:35:40.111Z,13791.4619
2023-05-10T07:36:41.691Z,13828.7695
2023-05-10T07:37:43.281Z,13843.2305
2023-05-10T07:38:45.003Z,13821.6924
2023-05-10T07:39:48.420Z,13792.0771
2023-05-10T07:40:48.823Z,13778.7695
2023-05-10T07:41:49.917Z,13817.1543
2023-05-10T07:42:51.517Z,13843.6924
2023-05-10T07:43:53.731Z,13826.7695
2023-05-10T07:44:54.885Z,13783.8457
2023-05-10T07:45:56.544Z,13770.2305
2023-05-10T07:46:58.769Z,13811.6924
2023-05-10T07:47:59.804Z,13836.0000
2023-05-10T07:49:01.405Z,13817.1543
2023-05-10T07:50:03.074Z,13780.6924
2023-05-10T07:51:04.792Z,13759.1543
2023-05-10T07:52:06.405Z,13788.6924
2023-05-10T07:53:08.002Z,13820.4619
2023-05-10T07:54:09.641Z,13817.0000
2023-05-10T07:55:11.338Z,13793.6924
2023-05-10T07:56:12.953Z,13765.6924
2023-05-10T07:57:14.596Z,13778.6924
2023-05-10T07:58:16.236Z,13818.6152
2023-05-10T07:59:17.932Z,13753.1543
2023-05-10T08:00:19.828Z,13742.8457
2023-05-10T08:01:21.619Z,13739.4619
2023-05-10T08:02:22.911Z,13715.0000
2023-05-10T08:03:24.647Z,13742.6924
2023-05-10T08:04:26.269Z,13780.3848
2023-05-10T08:05:27.936Z,13779.5381
2023-05-10T08:06:29.568Z,13754.7695
2023-05-10T08:07:31.233Z,13742.9229
2023-05-10T08:08:33.775Z,13739.6924
2023-05-10T08:09:34.503Z,13792.2305
2023-05-10T08:10:36.194Z,13810.7695
2023-05-10T08:11:37.886Z,13791.5381
2023-05-10T08:12:39.414Z,13769.6152
2023-05-10T08:13:41.059Z,13749.2305
2023-05-10T08:14:42.647Z,13756.3076
2023-05-10T08:15:44.453Z,13813.0000
2023-05-10T08:16:45.986Z,13826.1543
2023-05-10T08:17:48.680Z,13801.1543
2023-05-10T08:18:49.204Z,13774.5381
2023-05-10T08:19:50.892Z,13757.2305
2023-05-10T08:20:53.536Z,13771.3848
2023-05-10T08:21:54.194Z,13821.8457
2023-05-10T08:22:55.804Z,13820.2305
2023-05-10T08:23:57.556Z,13795.1543
2023-05-10T08:24:59.073Z,13775.5381
2023-05-10T08:26:01.017Z,13752.0771
2023-05-10T08:27:02.498Z,13785.7695
2023-05-10T08:28:04.147Z,13821.9229
2023-05-10T08:29:05.730Z,13814.9229
2023-05-10T08:30:07.424Z,13793.0000
2023-05-10T08:31:09.147Z,13779.0000
2023-05-10T08:32:10.720Z,13755.0771
2023-05-10T08:33:12.426Z,13785.2305
2023-05-10T08:34:14.039Z,13817.8457
2023-05-10T08:35:15.852Z,13814.0771
2023-05-10T08:36:17.362Z,13793.7695
2023-05-10T08:37:19.012Z,13780.1543
2023-05-10T08:38:21.533Z,13765.7695
2023-05-10T08:39:29.847Z,13796.6924
2023-05-10T08:40:23.878Z,13835.1543
2023-05-10T08:41:25.511Z,13825.3848
2023-05-10T08:42:27.187Z,13804.6924
2023-05-10T08:43:29.765Z,13783.9229
2023-05-10T08:44:30.431Z,13773.1543
2023-05-10T08:45:32.087Z,13806.3076
2023-05-10T08:46:33.770Z,13840.3076
2023-05-10T08:47:35.365Z,13839.6152
2023-05-10T08:48:37.025Z,13809.9229
2023-05-10T08:49:38.654Z,13797.0000
2023-05-10T08:50:40.592Z,13786.6152
2023-05-10T08:51:43.823Z,13816.5381
2023-05-10T08:52:43.565Z,13852.0000
2023-05-10T08:53:45.492Z,13842.3076
2023-05-10T08:54:47.695Z,13819.1543
2023-05-10T08:55:48.386Z,13796.7695
2023-05-10T08:56:50.192Z,13781.7695
2023-05-10T08:57:51.642Z,13815.3848
2023-05-10T08:58:53.444Z,13847.1543
2023-05-10T08:59:55.002Z,13849.4619
2023-05-10T09:00:56.801Z,13828.0771
2023-05-10T09:01:58.374Z,13813.0771
2023-05-10T09:03:00.038Z,13790.8457
2023-05-10T09:04:02.045Z,13821.2305
2023-05-10T09:05:03.413Z,13860.5381
2023-05-10T09:06:05.063Z,13853.1543
2023-05-10T09:07:06.623Z,13832.4619
2023-05-10T09:08:08.324Z,13820.7695
2023-05-10T09:09:09.852Z,13784.9229
2023-05-10T09:10:11.541Z,13831.8457
2023-05-10T09:11:13.192Z,13856.1543
2023-05-10T09:12:14.810Z,13862.2305
2023-05-10T09:13:16.527Z,13839.4619
2023-05-10T09:14:18.122Z,13827.6924
2023-05-10T09:15:19.831Z,13807.8457
2023-05-10T09:16:22.460Z,13839.2305
2023-05-10T09:17:23.152Z,13864.6152
2023-05-10T09:18:26.018Z,13867.0771
2023-05-10T09:19:27.400Z,13846.3848
2023-05-10T09:20:27.884Z,13829.6924
2023-05-10T09:21:29.505Z,13805.4619
2023-05-10T09:22:31.282Z,13844.0000
2023-05-10T09:23:32.764Z,13871.4619
2023-05-10T09:24:35.416Z,13868.8457
2023-05-10T09:25:36.094Z,13843.6152
2023-05-10T09:26:37.747Z,13837.0000
2023-05-10T09:27:39.345Z,13803.3076
2023-05-10T09:28:41.088Z,13846.3076
2023-05-10T09:29:42.624Z,13870.6924
2023-05-10T09:30:44.340Z,13870.6924
2023-05-10T09:31:45.928Z,13850.0771
2023-05-10T09:32:47.643Z,13839.8457
2023-05-10T09:33:49.214Z,13807.1543
2023-05-10T09:34:50.847Z,13849.3848
2023-05-10T09:35:52.586Z,13873.5381
2023-05-10T09:36:54.121Z,13862.9229
2023-05-10T09:37:55.861Z,13849.9229
2023-05-10T09:38:57.535Z,13830.2305
2023-05-10T09:39:59.076Z,13807.0000
2023-05-10T09:41:00.817Z,13854.0000
2023-05-10T09:42:02.362Z,13866.4619
2023-05-10T09:43:04.037Z,13863.5381
2023-05-10T09:44:05.686Z,13846.7695
2023-05-10T09:45:07.320Z,13838.2305
2023-05-10T09:46:09.003Z,13817.3076
2023-05-10T09:47:10.564Z,13863.1543
2023-05-10T09:48:12.462Z,13876.8457
2023-05-10T09:49:13.853Z,13867.0771
2023-05-10T09:50:15.563Z,13846.7695
2023-05-10T09:51:17.235Z,13845.3076
2023-05-10T09:52:18.834Z,13826.9229
2023-05-10T09:53:20.468Z,13870.1543
2023-05-10T09:54:22.110Z,13881.2305
2023-05-10T09:55:23.765Z,13864.2305
2023-05-10T09:56:25.431Z,13855.9229
2023-05-10T09:57:27.038Z,13849.1543
2023-05-10T09:58:28.733Z,13837.3076
2023-05-10T09:59:30.325Z,13874.3848
2023-05-10T10:00:31.975Z,13887.4619
2023-05-10T10:01:33.705Z,13875.6924
2023-05-10T10:02:35.283Z,13853.2305
2023-05-10T10:03:36.936Z,13843.9229
2023-05-10T10:04:38.545Z,13849.3076
2023-05-10T10:05:40.274Z,13887.3848
2023-05-10T10:06:41.831Z,13893.0000
2023-05-10T10:07:43.476Z,13882.0000
2023-05-10T10:08:45.192Z,13859.3848
2023-05-10T10:09:46.827Z,13853.8457
2023-05-10T10:10:48.437Z,13858.6924
2023-05-10T10:11:50.064Z,13894.9229
2023-05-10T10:12:51.666Z,13899.1543
2023-05-10T10:13:53.362Z,13886.0771
2023-05-10T10:14:54.971Z,13857.6924
2023-05-10T10:15:56.627Z,13857.6924
2023-05-10T10:17:06.787Z,13857.9229
2023-05-10T10:18:00.044Z,13894.0771
2023-05-10T10:19:01.700Z,13898.9229
2023-05-10T10:20:03.266Z,13872.8457
2023-05-10T10:21:04.804Z,13872.3848
2023-05-10T10:22:06.583Z,13864.3848
2023-05-10T10:23:08.134Z,13854.6152
2023-05-10T10:24:09.857Z,13886.6152
2023-05-10T10:25:11.381Z,13899.2305
2023-05-10T10:26:13.106Z,13890.7695
2023-05-10T10:27:14.692Z,13864.6924
2023-05-10T10:28:16.271Z,13858.6924
2023-05-10T10:29:17.991Z,13882.2305
2023-05-10T10:30:19.731Z,13885.5381
2023-05-10T10:31:21.323Z,13891.8457
2023-05-10T10:32:23.022Z,13876.0771
2023-05-10T10:33:28.739Z,13860.6924
2023-05-10T10:34:26.234Z,13866.6924
2023-05-10T10:35:27.890Z,13875.7695
2023-05-10T10:36:29.554Z,13874.2305
2023-05-10T10:37:31.096Z,13882.6924
2023-05-10T10:38:32.773Z,13866.3076
2023-05-10T10:39:34.467Z,13851.6924
2023-05-10T10:40:36.083Z,13864.0000
2023-05-10T10:41:37.717Z,13873.3076
2023-05-10T10:42:39.358Z,13878.0771
2023-05-10T10:43:40.997Z,13885.6152
2023-05-10T10:44:42.614Z,13869.8457
2023-05-10T10:45:44.238Z,13847.7695
2023-05-10T10:46:45.946Z,13866.0000
2023-05-10T10:47:47.642Z,13884.1543
2023-05-10T10:48:49.139Z,13887.4619
2023-05-10T10:49:51.547Z,13888.6152
2023-05-10T10:50:52.611Z,13866.6924
2023-05-10T10:51:54.079Z,13856.4619
2023-05-10T10:52:55.830Z,13873.6924
2023-05-10T10:53:57.402Z,13886.4619
2023-05-10T10:54:59.175Z,13891.2305
2023-05-10T10:56:00.744Z,13884.0771
2023-05-10T10:57:02.348Z,13865.2305
2023-05-10T10:58:03.980Z,13862.2305
2023-05-10T10:59:05.653Z,13885.7695
2023-05-10T11:00:07.295Z,13889.3848
2023-05-10T11:01:08.939Z,13901.3848
2023-05-10T11:02:10.587Z,13887.2305
2023-05-10T11:03:12.246Z,13858.0000
2023-05-10T11:04:14.052Z,13870.0000
2023-05-10T11:05:15.602Z,13889.8457
2023-05-10T11:06:17.152Z,13898.7695
2023-05-10T11:07:18.820Z,13899.3076
2023-05-10T11:08:20.400Z,13880.7695
2023-05-10T11:09:21.982Z,13859.3848
2023-05-10T11:10:24.038Z,13871.9229
2023-05-10T11:11:25.286Z,13891.8457
2023-05-10T11:12:27.105Z,13893.1543
2023-05-10T11:13:28.567Z,13903.8457
2023-05-10T11:14:30.363Z,13881.8457
2023-05-10T11:15:31.988Z,13854.3076
2023-05-10T11:16:33.553Z,13878.6924
2023-05-10T11:17:35.231Z,13893.3076
2023-05-10T11:18:36.916Z,13895.3848
2023-05-10T11:19:38.448Z,13896.3076
2023-05-10T11:20:40.203Z,13887.1543
2023-05-10T11:21:41.718Z,13858.1543
2023-05-10T11:22:43.471Z,13877.0771
2023-05-10T11:23:45.066Z,13897.1543